Terminal Aerodrome Forecast
Issued by NWS Bismarck, ND

Home | Current Version | Previous Version | Text Only | Print | Product List | Glossary Off
Versions: 1 2 3 4 5 6 7 8 9 10 11 12 13 14 15 16

329
FTUS43 KBIS 062339
TAFISN
TAF
KISN 062339Z 0700/0724 28027G37KT P6SM SCT030 BKN050
     FM071100 31030G41KT P6SM VCSH SCT020 OVC040
     FM071500 32033G46KT P6SM OVC020=

USA.gov is the U.S. government's official web portal to all federal, state and local government web resources and services.